Newark, New Jersey
Current Conditions -  °F | °C
As of 8:51 PM on Wednesday 22 Oct 2014 (Local Time) from KEWR Reporting Station
Light Rain Light Rain  
Wind Chill: 53°   Ceiling: 2400
Heat Index: 53°   Visibility: 10mi
Dew Point: 49°   Wind: 22mph
Humidity: 86%   Direction: 350°N
Pressure: 29.78"   Gusts: 35mph
Location:  40.73°N, 74.17°W
Report Text: KEWR 230051Z 35019G30KT 10SM -RA FEW014 BKN024 OVC040 12/09 A2978 RMK AO2 PK WND 35030/0049 SLP083 P0004 T01170094
Loading
Personal Weather Stations






























Interactive Weather Map New forecast layout! Learn more

10-Day Weather Forecast

Advertisements
Track Severe Weather on mobile